DNO575 HDAM-FGSL
Flight info
| Callsign | DNO575 |
|---|---|
| Flight time | N/A |
| Altitude | 38000 |
| Route | LAKBE1P LAKBE B535 GWZ UT139 GETIN T139 DASTU L558 ASKON UT139 MPK UR984 NLY SAKNI1A |
| Aircraft | A346/H-SDE2E3FGHIJ3J4J5M1RWXY/LB1D1 |
Departure
| Time | N/A |
|---|---|
| Airport | Djibouti-Ambouli Airport (HDAM) |
Arrival
| Time | 2026-04-27 20:55 |
|---|---|
| Airport | Malabo International Airport (FGSL) |
| Time | Latitude | Longitude | Altitude | Speed | Heading |
|---|---|---|---|---|---|
| 2026-04-27 17:48 | 7.74550 | 32.78431 | 35894 ft | 488 kts | 257° |
| 2026-04-27 17:49 | 7.73087 | 32.71782 | 35891 ft | 488 kts | 257° |
| 2026-04-27 17:49 | 7.71617 | 32.65095 | 35891 ft | 488 kts | 257° |
| 2026-04-27 17:50 | 7.70143 | 32.58399 | 35890 ft | 488 kts | 257° |
| 2026-04-27 17:50 | 7.67932 | 32.48381 | 35894 ft | 488 kts | 257° |
| 2026-04-27 17:51 | 7.66445 | 32.41692 | 35893 ft | 488 kts | 257° |
| 2026-04-27 17:51 | 7.64960 | 32.35005 | 35893 ft | 488 kts | 257° |
| 2026-04-27 17:52 | 7.63478 | 32.28321 | 35888 ft | 488 kts | 257° |
| 2026-04-27 17:52 | 7.61995 | 32.21633 | 35888 ft | 488 kts | 257° |
| 2026-04-27 17:53 | 7.60512 | 32.14951 | 35888 ft | 488 kts | 257° |
| 2026-04-27 17:53 | 7.59028 | 32.08264 | 35888 ft | 488 kts | 257° |
| 2026-04-27 17:54 | 7.57552 | 32.01627 | 35889 ft | 488 kts | 257° |
| 2026-04-27 17:54 | 7.56070 | 31.94956 | 35890 ft | 488 kts | 257° |
| 2026-04-27 17:55 | 7.54582 | 31.88266 | 35891 ft | 488 kts | 257° |
| 2026-04-27 17:55 | 7.53095 | 31.81584 | 35892 ft | 488 kts | 257° |
| 2026-04-27 17:56 | 7.51608 | 31.74900 | 35891 ft | 487 kts | 257° |
| 2026-04-27 17:56 | 7.50122 | 31.68227 | 35890 ft | 487 kts | 257° |
| 2026-04-27 17:57 | 7.48632 | 31.61547 | 35893 ft | 487 kts | 257° |
| 2026-04-27 17:57 | 7.47134 | 31.54877 | 35894 ft | 487 kts | 257° |
| 2026-04-27 17:58 | 7.45637 | 31.48205 | 35896 ft | 487 kts | 257° |
| 2026-04-27 17:58 | 7.44142 | 31.41527 | 35895 ft | 488 kts | 257° |
| 2026-04-27 17:59 | 7.42647 | 31.34854 | 35892 ft | 488 kts | 257° |
| 2026-04-27 17:59 | 7.41158 | 31.28215 | 35890 ft | 488 kts | 257° |
| 2026-04-27 18:00 | 7.39659 | 31.21533 | 35894 ft | 488 kts | 257° |
| 2026-04-27 18:00 | 7.38158 | 31.14845 | 35893 ft | 489 kts | 257° |
| 2026-04-27 18:01 | 7.36657 | 31.08159 | 35891 ft | 488 kts | 257° |
| 2026-04-27 18:01 | 7.35155 | 31.01475 | 35892 ft | 488 kts | 257° |
| 2026-04-27 18:02 | 7.33651 | 30.94791 | 35892 ft | 488 kts | 257° |
| 2026-04-27 18:02 | 7.32147 | 30.88105 | 35893 ft | 488 kts | 257° |
| 2026-04-27 18:03 | 7.30642 | 30.81427 | 35899 ft | 488 kts | 257° |
| 2026-04-27 18:03 | 7.29137 | 30.74747 | 35899 ft | 488 kts | 257° |
| 2026-04-27 18:04 | 7.27622 | 30.68034 | 35999 ft | 495 kts | 257° |
| 2026-04-27 18:04 | 7.26858 | 30.64647 | 36271 ft | 495 kts | 257° |
| 2026-04-27 18:04 | 7.26094 | 30.61261 | 36638 ft | 494 kts | 257° |
| 2026-04-27 18:05 | 7.25344 | 30.57938 | 37018 ft | 492 kts | 257° |
| 2026-04-27 18:05 | 7.24574 | 30.54528 | 37392 ft | 491 kts | 257° |
| 2026-04-27 18:05 | 7.23818 | 30.51182 | 37727 ft | 490 kts | 256° |
| 2026-04-27 18:05 | 7.23061 | 30.47832 | 37886 ft | 490 kts | 256° |
| 2026-04-27 18:06 | 7.21547 | 30.41139 | 37892 ft | 489 kts | 256° |
| 2026-04-27 18:06 | 7.20044 | 30.34487 | 37893 ft | 491 kts | 256° |
| 2026-04-27 18:07 | 7.18520 | 30.27765 | 37892 ft | 492 kts | 256° |
| 2026-04-27 18:07 | 7.16996 | 30.21045 | 37894 ft | 492 kts | 256° |
| 2026-04-27 18:08 | 7.15471 | 30.14319 | 37890 ft | 492 kts | 256° |
| 2026-04-27 18:08 | 7.13945 | 30.07594 | 37890 ft | 492 kts | 256° |
| 2026-04-27 18:09 | 7.12413 | 30.00841 | 37890 ft | 492 kts | 256° |
| 2026-04-27 18:09 | 7.10887 | 29.94118 | 37892 ft | 492 kts | 256° |
| 2026-04-27 18:10 | 7.09362 | 29.87397 | 37892 ft | 492 kts | 256° |
| 2026-04-27 18:10 | 7.07827 | 29.80656 | 37887 ft | 493 kts | 256° |
| 2026-04-27 18:11 | 7.06278 | 29.73900 | 37887 ft | 495 kts | 256° |
| 2026-04-27 18:11 | 7.04729 | 29.67125 | 37885 ft | 496 kts | 256° |
| 2026-04-27 18:12 | 7.03182 | 29.60349 | 37886 ft | 496 kts | 256° |
| 2026-04-27 18:12 | 7.01646 | 29.53622 | 37884 ft | 496 kts | 256° |
| 2026-04-27 18:13 | 7.00098 | 29.46851 | 37888 ft | 495 kts | 256° |
| 2026-04-27 18:13 | 6.98552 | 29.40086 | 37890 ft | 495 kts | 256° |
| 2026-04-27 18:14 | 6.97005 | 29.33322 | 37888 ft | 495 kts | 256° |
| 2026-04-27 18:14 | 6.95457 | 29.26552 | 37886 ft | 496 kts | 256° |
| 2026-04-27 18:15 | 6.93900 | 29.19758 | 37891 ft | 497 kts | 256° |
| 2026-04-27 18:15 | 6.92343 | 29.12966 | 37893 ft | 497 kts | 256° |
| 2026-04-27 18:16 | 6.90794 | 29.06215 | 37895 ft | 497 kts | 256° |
| 2026-04-27 18:16 | 6.89236 | 28.99427 | 37898 ft | 497 kts | 256° |
| 2026-04-27 18:17 | 6.87674 | 28.92633 | 37895 ft | 497 kts | 256° |
| 2026-04-27 18:17 | 6.86110 | 28.85830 | 37899 ft | 498 kts | 256° |
| 2026-04-27 18:18 | 6.84547 | 28.79034 | 37901 ft | 497 kts | 256° |
| 2026-04-27 18:18 | 6.82985 | 28.72243 | 37901 ft | 497 kts | 256° |
| 2026-04-27 18:19 | 6.81420 | 28.65448 | 37900 ft | 497 kts | 256° |
| 2026-04-27 18:19 | 6.79854 | 28.58659 | 37899 ft | 497 kts | 256° |
| 2026-04-27 18:20 | 6.78289 | 28.51868 | 37905 ft | 497 kts | 256° |
| 2026-04-27 18:20 | 6.76723 | 28.45084 | 37904 ft | 497 kts | 256° |
| 2026-04-27 18:21 | 6.75155 | 28.38292 | 37903 ft | 497 kts | 256° |
| 2026-04-27 18:21 | 6.73595 | 28.31546 | 37902 ft | 497 kts | 256° |
| 2026-04-27 18:22 | 6.72029 | 28.24771 | 37901 ft | 497 kts | 256° |
| 2026-04-27 18:22 | 6.70459 | 28.17987 | 37900 ft | 497 kts | 256° |
| 2026-04-27 18:23 | 6.68886 | 28.11189 | 37897 ft | 498 kts | 256° |
| 2026-04-27 18:23 | 6.67311 | 28.04389 | 37902 ft | 498 kts | 256° |
| 2026-04-27 18:24 | 6.65737 | 27.97600 | 37906 ft | 498 kts | 256° |
| 2026-04-27 18:24 | 6.64161 | 27.90807 | 37902 ft | 498 kts | 256° |
| 2026-04-27 18:25 | 6.62851 | 27.85161 | 37899 ft | 498 kts | 256° |
| 2026-04-27 18:25 | 6.61007 | 27.77222 | 37903 ft | 498 kts | 256° |
| 2026-04-27 18:26 | 6.59694 | 27.71576 | 37903 ft | 498 kts | 256° |
| 2026-04-27 18:26 | 6.58116 | 27.64788 | 37901 ft | 498 kts | 256° |
| 2026-04-27 18:27 | 6.56536 | 27.58002 | 37905 ft | 498 kts | 256° |
| 2026-04-27 18:27 | 6.54955 | 27.51212 | 37909 ft | 498 kts | 256° |
| 2026-04-27 18:28 | 6.53374 | 27.44425 | 37901 ft | 497 kts | 256° |
| 2026-04-27 18:28 | 6.51795 | 27.37653 | 37902 ft | 496 kts | 256° |
| 2026-04-27 18:29 | 6.50217 | 27.30890 | 37904 ft | 496 kts | 256° |
| 2026-04-27 18:29 | 6.48637 | 27.24122 | 37905 ft | 496 kts | 256° |
| 2026-04-27 18:30 | 6.47057 | 27.17355 | 37907 ft | 496 kts | 256° |
| 2026-04-27 18:30 | 6.45490 | 27.10648 | 37907 ft | 495 kts | 256° |
| 2026-04-27 18:31 | 6.43913 | 27.03905 | 37905 ft | 494 kts | 256° |
| 2026-04-27 18:31 | 6.42336 | 26.97169 | 37909 ft | 494 kts | 256° |
| 2026-04-27 18:32 | 6.40758 | 26.90427 | 37912 ft | 494 kts | 256° |
| 2026-04-27 18:32 | 6.39180 | 26.83690 | 37904 ft | 494 kts | 256° |
| 2026-04-27 18:33 | 6.37606 | 26.76975 | 37910 ft | 493 kts | 256° |
| 2026-04-27 18:33 | 6.36030 | 26.70254 | 37920 ft | 493 kts | 256° |
| 2026-04-27 18:34 | 6.34455 | 26.63538 | 37919 ft | 493 kts | 256° |
| 2026-04-27 18:34 | 6.32879 | 26.56821 | 37918 ft | 493 kts | 256° |
| 2026-04-27 18:35 | 6.31307 | 26.50114 | 37908 ft | 492 kts | 256° |
| 2026-04-27 18:35 | 6.29732 | 26.43413 | 37921 ft | 492 kts | 256° |
| 2026-04-27 18:36 | 6.28150 | 26.36719 | 37921 ft | 492 kts | 256° |
| 2026-04-27 18:36 | 6.26575 | 26.30062 | 37913 ft | 492 kts | 256° |
| 2026-04-27 18:37 | 6.24994 | 26.23365 | 37919 ft | 492 kts | 256° |
| 2026-04-27 18:37 | 6.23413 | 26.16667 | 37923 ft | 492 kts | 256° |
| 2026-04-27 18:38 | 6.21833 | 26.09967 | 37922 ft | 492 kts | 256° |
| 2026-04-27 18:38 | 6.20251 | 26.03267 | 37922 ft | 492 kts | 256° |
| 2026-04-27 18:39 | 6.18671 | 25.96579 | 37922 ft | 492 kts | 256° |
| 2026-04-27 18:39 | 6.17090 | 25.89887 | 37919 ft | 492 kts | 256° |
| 2026-04-27 18:40 | 6.15519 | 25.83233 | 37923 ft | 492 kts | 256° |
| 2026-04-27 18:40 | 6.13931 | 25.76521 | 37927 ft | 493 kts | 256° |
| 2026-04-27 18:41 | 6.12339 | 25.69806 | 37923 ft | 493 kts | 256° |
| 2026-04-27 18:41 | 6.10748 | 25.63089 | 37927 ft | 493 kts | 256° |
| 2026-04-27 18:42 | 6.09415 | 25.57466 | 37922 ft | 493 kts | 256° |
| 2026-04-27 18:42 | 6.07565 | 25.49659 | 37924 ft | 493 kts | 256° |
| 2026-04-27 18:43 | 6.05973 | 25.42944 | 37922 ft | 493 kts | 256° |
| 2026-04-27 18:43 | 6.04383 | 25.36231 | 37926 ft | 493 kts | 256° |
| 2026-04-27 18:44 | 6.02792 | 25.29523 | 37923 ft | 493 kts | 256° |
| 2026-04-27 18:44 | 6.01193 | 25.22813 | 37916 ft | 493 kts | 256° |
| 2026-04-27 18:45 | 5.99590 | 25.16109 | 37925 ft | 493 kts | 256° |
| 2026-04-27 18:45 | 5.97989 | 25.09401 | 37915 ft | 493 kts | 256° |
| 2026-04-27 18:46 | 5.96391 | 25.02695 | 37920 ft | 493 kts | 256° |
| 2026-04-27 18:46 | 5.94795 | 24.95998 | 37919 ft | 492 kts | 256° |
| 2026-04-27 18:47 | 5.93208 | 24.89345 | 37916 ft | 492 kts | 256° |
| 2026-04-27 18:47 | 5.91611 | 24.82649 | 37916 ft | 492 kts | 256° |
| 2026-04-27 18:48 | 5.90013 | 24.75956 | 37918 ft | 492 kts | 256° |
| 2026-04-27 18:48 | 5.88415 | 24.69263 | 37918 ft | 492 kts | 256° |
| 2026-04-27 18:49 | 5.86813 | 24.62564 | 37917 ft | 493 kts | 256° |
| 2026-04-27 18:49 | 5.85208 | 24.55851 | 37921 ft | 494 kts | 256° |
| 2026-04-27 18:50 | 5.83601 | 24.49131 | 37912 ft | 494 kts | 256° |
| 2026-04-27 18:50 | 5.81993 | 24.42412 | 37924 ft | 494 kts | 256° |
| 2026-04-27 18:51 | 5.80386 | 24.35698 | 37924 ft | 494 kts | 256° |
| 2026-04-27 18:51 | 5.78773 | 24.28969 | 37918 ft | 495 kts | 256° |
| 2026-04-27 18:52 | 5.77171 | 24.22284 | 37927 ft | 495 kts | 256° |
| 2026-04-27 18:53 | 5.74753 | 24.12201 | 37934 ft | 495 kts | 256° |
| 2026-04-27 18:53 | 5.73139 | 24.05476 | 37934 ft | 494 kts | 256° |
| 2026-04-27 18:54 | 5.71529 | 23.98769 | 37934 ft | 493 kts | 256° |
| 2026-04-27 18:54 | 5.69920 | 23.92060 | 37931 ft | 493 kts | 256° |
| 2026-04-27 18:55 | 5.68311 | 23.85352 | 37935 ft | 493 kts | 256° |
| 2026-04-27 18:55 | 5.66701 | 23.78649 | 37933 ft | 493 kts | 256° |
| 2026-04-27 18:56 | 5.65080 | 23.71943 | 37938 ft | 492 kts | 256° |
| 2026-04-27 18:56 | 5.63465 | 23.65272 | 37936 ft | 491 kts | 256° |
| 2026-04-27 18:57 | 5.61864 | 23.58645 | 37931 ft | 491 kts | 256° |
| 2026-04-27 18:57 | 5.60253 | 23.51966 | 37932 ft | 491 kts | 256° |
| 2026-04-27 18:58 | 5.58643 | 23.45294 | 37933 ft | 491 kts | 256° |
| 2026-04-27 18:58 | 5.57023 | 23.38591 | 37935 ft | 493 kts | 256° |
| 2026-04-27 18:59 | 5.55405 | 23.31894 | 37935 ft | 492 kts | 256° |
| 2026-04-27 18:59 | 5.53790 | 23.25204 | 37937 ft | 492 kts | 256° |
| 2026-04-27 19:00 | 5.52173 | 23.18516 | 37932 ft | 492 kts | 256° |
| 2026-04-27 19:00 | 5.50556 | 23.11829 | 37931 ft | 493 kts | 256° |
| 2026-04-27 19:01 | 5.48936 | 23.05134 | 37937 ft | 492 kts | 256° |
| 2026-04-27 19:01 | 5.47318 | 22.98454 | 37931 ft | 492 kts | 256° |
| 2026-04-27 19:02 | 5.45707 | 22.91806 | 37935 ft | 492 kts | 256° |
| 2026-04-27 19:02 | 5.44086 | 22.85117 | 37937 ft | 492 kts | 256° |
| 2026-04-27 19:03 | 5.42466 | 22.78437 | 37932 ft | 492 kts | 256° |
| 2026-04-27 19:03 | 5.40846 | 22.71749 | 37933 ft | 493 kts | 256° |
| 2026-04-27 19:04 | 5.39217 | 22.65048 | 37940 ft | 493 kts | 256° |
| 2026-04-27 19:04 | 5.37590 | 22.58350 | 37941 ft | 493 kts | 256° |
| 2026-04-27 19:05 | 5.35962 | 22.51652 | 37939 ft | 493 kts | 256° |
| 2026-04-27 19:05 | 5.34333 | 22.44953 | 37938 ft | 493 kts | 255° |
| 2026-04-27 19:06 | 5.32713 | 22.38290 | 37943 ft | 494 kts | 255° |
| 2026-04-27 19:06 | 5.31080 | 22.31583 | 37944 ft | 494 kts | 255° |
| 2026-04-27 19:07 | 5.29445 | 22.24867 | 37947 ft | 494 kts | 255° |
| 2026-04-27 19:07 | 5.27805 | 22.18150 | 37942 ft | 495 kts | 256° |
| 2026-04-27 19:08 | 5.26166 | 22.11418 | 37942 ft | 496 kts | 256° |
| 2026-04-27 19:08 | 5.24524 | 22.04677 | 37948 ft | 497 kts | 256° |
| 2026-04-27 19:09 | 5.22882 | 21.97944 | 37945 ft | 497 kts | 256° |
| 2026-04-27 19:09 | 5.21234 | 21.91190 | 37946 ft | 497 kts | 256° |
| 2026-04-27 19:10 | 5.19597 | 21.84484 | 37943 ft | 497 kts | 256° |
| 2026-04-27 19:10 | 5.17950 | 21.77741 | 37948 ft | 497 kts | 256° |
| 2026-04-27 19:11 | 5.16305 | 21.71007 | 37944 ft | 496 kts | 256° |
| 2026-04-27 19:11 | 5.14660 | 21.64277 | 37949 ft | 496 kts | 256° |
| 2026-04-27 19:12 | 5.13014 | 21.57543 | 37950 ft | 496 kts | 256° |
| 2026-04-27 19:12 | 5.11380 | 21.50854 | 37951 ft | 496 kts | 256° |
| 2026-04-27 19:13 | 5.09736 | 21.44124 | 37950 ft | 496 kts | 256° |
| 2026-04-27 19:13 | 5.08090 | 21.37396 | 37949 ft | 496 kts | 256° |
| 2026-04-27 19:14 | 5.06432 | 21.30662 | 37953 ft | 496 kts | 256° |
| 2026-04-27 19:14 | 5.04774 | 21.23932 | 37950 ft | 496 kts | 256° |
| 2026-04-27 19:15 | 5.03120 | 21.17201 | 37949 ft | 496 kts | 256° |
| 2026-04-27 19:15 | 5.01481 | 21.10522 | 37955 ft | 495 kts | 256° |
| 2026-04-27 19:16 | 4.99836 | 21.03822 | 37954 ft | 494 kts | 256° |
| 2026-04-27 19:16 | 4.98192 | 20.97132 | 37949 ft | 494 kts | 256° |
| 2026-04-27 19:17 | 4.96821 | 20.91558 | 37952 ft | 495 kts | 256° |
| 2026-04-27 19:17 | 4.95168 | 20.84832 | 37949 ft | 495 kts | 256° |
| 2026-04-27 19:18 | 4.93516 | 20.78114 | 37952 ft | 495 kts | 256° |
| 2026-04-27 19:18 | 4.91863 | 20.71393 | 37953 ft | 495 kts | 256° |
| 2026-04-27 19:19 | 4.90210 | 20.64678 | 37952 ft | 496 kts | 256° |
| 2026-04-27 19:19 | 4.88556 | 20.57956 | 37945 ft | 495 kts | 256° |
| 2026-04-27 19:20 | 4.86901 | 20.51237 | 37946 ft | 495 kts | 256° |
| 2026-04-27 19:20 | 4.85249 | 20.44521 | 37940 ft | 496 kts | 256° |
| 2026-04-27 19:21 | 4.83591 | 20.37788 | 37943 ft | 497 kts | 256° |
| 2026-04-27 19:21 | 4.81934 | 20.31056 | 37942 ft | 497 kts | 256° |
| 2026-04-27 19:22 | 4.80270 | 20.24316 | 37942 ft | 497 kts | 256° |
| 2026-04-27 19:22 | 4.78598 | 20.17586 | 37937 ft | 497 kts | 256° |
| 2026-04-27 19:23 | 4.76927 | 20.10844 | 37937 ft | 497 kts | 256° |
| 2026-04-27 19:23 | 4.75270 | 20.04148 | 37931 ft | 498 kts | 256° |
| 2026-04-27 19:24 | 4.73601 | 19.97398 | 37934 ft | 498 kts | 256° |
| 2026-04-27 19:24 | 4.71932 | 19.90651 | 37941 ft | 498 kts | 256° |
| 2026-04-27 19:25 | 4.70263 | 19.83908 | 37941 ft | 498 kts | 256° |
| 2026-04-27 19:25 | 4.68592 | 19.77159 | 37946 ft | 497 kts | 256° |
| 2026-04-27 19:26 | 4.66923 | 19.70424 | 37940 ft | 497 kts | 256° |
| 2026-04-27 19:26 | 4.65254 | 19.63679 | 37942 ft | 497 kts | 256° |
| 2026-04-27 19:27 | 4.63586 | 19.56947 | 37944 ft | 497 kts | 256° |
| 2026-04-27 19:27 | 4.61915 | 19.50211 | 37947 ft | 497 kts | 256° |
| 2026-04-27 19:28 | 4.60243 | 19.43480 | 37943 ft | 497 kts | 256° |
| 2026-04-27 19:28 | 4.58570 | 19.36738 | 37940 ft | 497 kts | 256° |
| 2026-04-27 19:29 | 4.56898 | 19.29999 | 37939 ft | 497 kts | 256° |
| 2026-04-27 19:29 | 4.55235 | 19.23299 | 37941 ft | 497 kts | 256° |
| 2026-04-27 19:30 | 4.53561 | 19.16562 | 37940 ft | 497 kts | 256° |
| 2026-04-27 19:30 | 4.51886 | 19.09822 | 37941 ft | 498 kts | 256° |
| 2026-04-27 19:31 | 4.50203 | 19.03053 | 37937 ft | 500 kts | 256° |
| 2026-04-27 19:31 | 4.48523 | 18.96289 | 37931 ft | 500 kts | 256° |
| 2026-04-27 19:32 | 4.46842 | 18.89520 | 37938 ft | 500 kts | 256° |
| 2026-04-27 19:32 | 4.45160 | 18.82746 | 37931 ft | 500 kts | 256° |
| 2026-04-27 19:33 | 4.43481 | 18.75974 | 37932 ft | 500 kts | 256° |
| 2026-04-27 19:33 | 4.41836 | 18.69178 | 37948 ft | 501 kts | 256° |
| 2026-04-27 19:34 | 4.40208 | 18.62419 | 37951 ft | 501 kts | 256° |
| 2026-04-27 19:34 | 4.38606 | 18.55602 | 37952 ft | 501 kts | 258° |
| 2026-04-27 19:35 | 4.37593 | 18.48672 | 37946 ft | 501 kts | 265° |
| 2026-04-27 19:35 | 4.37178 | 18.41688 | 37944 ft | 501 kts | 267° |
| 2026-04-27 19:36 | 4.36824 | 18.34710 | 37940 ft | 501 kts | 267° |
| 2026-04-27 19:36 | 4.36459 | 18.27718 | 37936 ft | 501 kts | 267° |
| 2026-04-27 19:37 | 4.36087 | 18.20734 | 37935 ft | 501 kts | 267° |
| 2026-04-27 19:37 | 4.35715 | 18.13792 | 37936 ft | 501 kts | 267° |
| 2026-04-27 19:38 | 4.35339 | 18.06799 | 37927 ft | 501 kts | 267° |
| 2026-04-27 19:38 | 4.34963 | 17.99817 | 37936 ft | 501 kts | 267° |
| 2026-04-27 19:39 | 4.34585 | 17.92832 | 37933 ft | 502 kts | 267° |
| 2026-04-27 19:39 | 4.34208 | 17.85842 | 37947 ft | 502 kts | 267° |
| 2026-04-27 19:40 | 4.33830 | 17.78851 | 37942 ft | 502 kts | 267° |
| 2026-04-27 19:40 | 4.33451 | 17.71866 | 37946 ft | 501 kts | 267° |
| 2026-04-27 19:41 | 4.33072 | 17.64886 | 37941 ft | 500 kts | 267° |
| 2026-04-27 19:41 | 4.32693 | 17.57911 | 37957 ft | 500 kts | 267° |
| 2026-04-27 19:42 | 4.32314 | 17.50942 | 37947 ft | 500 kts | 267° |
| 2026-04-27 19:42 | 4.31934 | 17.43968 | 37949 ft | 500 kts | 267° |
| 2026-04-27 19:43 | 4.31555 | 17.36991 | 37952 ft | 500 kts | 267° |
| 2026-04-27 19:43 | 4.31178 | 17.30061 | 37955 ft | 500 kts | 267° |
| 2026-04-27 19:44 | 4.30800 | 17.23091 | 37956 ft | 500 kts | 267° |
| 2026-04-27 19:44 | 4.30419 | 17.16117 | 37951 ft | 500 kts | 267° |
| 2026-04-27 19:45 | 4.30033 | 17.09146 | 37956 ft | 500 kts | 267° |
| 2026-04-27 19:45 | 4.29653 | 17.02170 | 37950 ft | 501 kts | 267° |
| 2026-04-27 19:46 | 4.29275 | 16.95189 | 37952 ft | 501 kts | 267° |
| 2026-04-27 19:46 | 4.28899 | 16.88206 | 37953 ft | 501 kts | 267° |
| 2026-04-27 19:47 | 4.28521 | 16.81217 | 37960 ft | 501 kts | 267° |
| 2026-04-27 19:47 | 4.28146 | 16.74278 | 37960 ft | 501 kts | 267° |
| 2026-04-27 19:48 | 4.27768 | 16.67293 | 37963 ft | 501 kts | 267° |
| 2026-04-27 19:48 | 4.27389 | 16.60316 | 37956 ft | 500 kts | 267° |
| 2026-04-27 19:49 | 4.27011 | 16.53338 | 37955 ft | 500 kts | 267° |
| 2026-04-27 19:49 | 4.26632 | 16.46369 | 37960 ft | 500 kts | 267° |
| 2026-04-27 19:50 | 4.26252 | 16.39389 | 37955 ft | 500 kts | 267° |
| 2026-04-27 19:50 | 4.25873 | 16.32458 | 37954 ft | 501 kts | 267° |
| 2026-04-27 19:51 | 4.25492 | 16.25479 | 37950 ft | 501 kts | 267° |
| 2026-04-27 19:51 | 4.25111 | 16.18505 | 37959 ft | 501 kts | 267° |
| 2026-04-27 19:52 | 4.24729 | 16.11524 | 37951 ft | 501 kts | 267° |
| 2026-04-27 19:52 | 4.24347 | 16.04550 | 37949 ft | 501 kts | 267° |
| 2026-04-27 19:53 | 4.23774 | 15.94092 | 37957 ft | 500 kts | 267° |
| 2026-04-27 19:53 | 4.23396 | 15.87126 | 37956 ft | 499 kts | 267° |
| 2026-04-27 19:54 | 4.23014 | 15.80175 | 37960 ft | 499 kts | 267° |
| 2026-04-27 19:54 | 4.22326 | 15.73240 | 37957 ft | 499 kts | 263° |
| 2026-04-27 19:55 | 4.21513 | 15.66363 | 37962 ft | 499 kts | 263° |
| 2026-04-27 19:55 | 4.20701 | 15.59444 | 37963 ft | 498 kts | 263° |
| 2026-04-27 19:56 | 4.19898 | 15.52553 | 37964 ft | 497 kts | 263° |
| 2026-04-27 19:56 | 4.19098 | 15.45661 | 37962 ft | 497 kts | 263° |
| 2026-04-27 19:57 | 4.18299 | 15.38773 | 37961 ft | 497 kts | 263° |
| 2026-04-27 19:57 | 4.17496 | 15.31884 | 37962 ft | 497 kts | 263° |
| 2026-04-27 19:58 | 4.16676 | 15.24983 | 37962 ft | 497 kts | 263° |
| 2026-04-27 19:58 | 4.15866 | 15.18132 | 37964 ft | 497 kts | 263° |
| 2026-04-27 19:59 | 4.15056 | 15.11239 | 37961 ft | 497 kts | 263° |
| 2026-04-27 19:59 | 4.14246 | 15.04340 | 37972 ft | 497 kts | 263° |
| 2026-04-27 20:00 | 4.13436 | 14.97448 | 37972 ft | 498 kts | 263° |
| 2026-04-27 20:00 | 4.12625 | 14.90550 | 37969 ft | 497 kts | 263° |
| 2026-04-27 20:01 | 4.11817 | 14.83687 | 37966 ft | 495 kts | 263° |
| 2026-04-27 20:01 | 4.11010 | 14.76822 | 37967 ft | 495 kts | 263° |
| 2026-04-27 20:02 | 4.10202 | 14.69960 | 37969 ft | 495 kts | 263° |
| 2026-04-27 20:02 | 4.09393 | 14.63103 | 37970 ft | 495 kts | 263° |
| 2026-04-27 20:03 | 4.08585 | 14.56249 | 37970 ft | 495 kts | 263° |
| 2026-04-27 20:03 | 4.07775 | 14.49386 | 37974 ft | 495 kts | 263° |
| 2026-04-27 20:04 | 4.06970 | 14.42569 | 37967 ft | 495 kts | 263° |
| 2026-04-27 20:04 | 4.06292 | 14.36824 | 37967 ft | 495 kts | 263° |
| 2026-04-27 20:05 | 4.05350 | 14.28851 | 37966 ft | 496 kts | 263° |
| 2026-04-27 20:05 | 4.04538 | 14.21977 | 37969 ft | 496 kts | 263° |
| 2026-04-27 20:06 | 4.03859 | 14.16218 | 37972 ft | 496 kts | 263° |
| 2026-04-27 20:06 | 4.03054 | 14.09389 | 37972 ft | 496 kts | 263° |
| 2026-04-27 20:07 | 4.02237 | 14.02500 | 37974 ft | 496 kts | 263° |
| 2026-04-27 20:07 | 4.01409 | 13.95623 | 37969 ft | 496 kts | 263° |
| 2026-04-27 20:08 | 4.00585 | 13.88747 | 37968 ft | 496 kts | 263° |
| 2026-04-27 20:08 | 3.99764 | 13.81878 | 37970 ft | 496 kts | 264° |
| 2026-04-27 20:09 | 3.98946 | 13.75008 | 37971 ft | 496 kts | 264° |
| 2026-04-27 20:09 | 3.98129 | 13.68135 | 37976 ft | 496 kts | 264° |
| 2026-04-27 20:10 | 3.97311 | 13.61269 | 37975 ft | 496 kts | 264° |
| 2026-04-27 20:10 | 3.96498 | 13.54447 | 37974 ft | 496 kts | 264° |
| 2026-04-27 20:11 | 3.95678 | 13.47578 | 37972 ft | 496 kts | 264° |
| 2026-04-27 20:11 | 3.94859 | 13.40721 | 37973 ft | 495 kts | 264° |
| 2026-04-27 20:12 | 3.94040 | 13.33869 | 37975 ft | 495 kts | 264° |
| 2026-04-27 20:12 | 3.93221 | 13.27013 | 37974 ft | 495 kts | 264° |
| 2026-04-27 20:13 | 3.92401 | 13.20164 | 37976 ft | 495 kts | 264° |
| 2026-04-27 20:13 | 3.91581 | 13.13306 | 37974 ft | 495 kts | 264° |
| 2026-04-27 20:14 | 3.90760 | 13.06463 | 37975 ft | 493 kts | 264° |
| 2026-04-27 20:14 | 3.89944 | 12.99637 | 37975 ft | 493 kts | 264° |
| 2026-04-27 20:15 | 3.89127 | 12.92807 | 37969 ft | 493 kts | 264° |
| 2026-04-27 20:15 | 3.88309 | 12.85976 | 37972 ft | 493 kts | 264° |
| 2026-04-27 20:16 | 3.87494 | 12.79148 | 37982 ft | 493 kts | 264° |
| 2026-04-27 20:16 | 3.86674 | 12.72313 | 37972 ft | 494 kts | 264° |
| 2026-04-27 20:17 | 3.85847 | 12.65510 | 37974 ft | 494 kts | 264° |
| 2026-04-27 20:17 | 3.85014 | 12.58661 | 37975 ft | 494 kts | 264° |
| 2026-04-27 20:18 | 3.84187 | 12.51815 | 37970 ft | 494 kts | 264° |
| 2026-04-27 20:18 | 3.83360 | 12.44964 | 37975 ft | 494 kts | 264° |
| 2026-04-27 20:19 | 3.82535 | 12.38119 | 37975 ft | 495 kts | 264° |
| 2026-04-27 20:19 | 3.81708 | 12.31262 | 37983 ft | 495 kts | 264° |
| 2026-04-27 20:20 | 3.80879 | 12.24403 | 37984 ft | 495 kts | 264° |
| 2026-04-27 20:20 | 3.80050 | 12.17549 | 37984 ft | 495 kts | 264° |
| 2026-04-27 20:21 | 3.79225 | 12.10731 | 37983 ft | 495 kts | 264° |
| 2026-04-27 20:21 | 3.78396 | 12.03877 | 37990 ft | 495 kts | 264° |
| 2026-04-27 20:22 | 3.77573 | 11.97046 | 37987 ft | 494 kts | 264° |
| 2026-04-27 20:22 | 3.76743 | 11.90210 | 37978 ft | 494 kts | 263° |
| 2026-04-27 20:23 | 3.75915 | 11.83376 | 37989 ft | 493 kts | 264° |
| 2026-04-27 20:23 | 3.75088 | 11.76543 | 37976 ft | 493 kts | 264° |
| 2026-04-27 20:24 | 3.74262 | 11.69709 | 37982 ft | 493 kts | 264° |
| 2026-04-27 20:24 | 3.73440 | 11.62873 | 37982 ft | 495 kts | 263° |
| 2026-04-27 20:25 | 3.72714 | 11.56000 | 37978 ft | 496 kts | 267° |
| 2026-04-27 20:25 | 3.72620 | 11.49082 | 37980 ft | 496 kts | 271° |
| 2026-04-27 20:26 | 3.72740 | 11.42164 | 37979 ft | 496 kts | 271° |
| 2026-04-27 20:26 | 3.72864 | 11.35248 | 37983 ft | 496 kts | 271° |
| 2026-04-27 20:27 | 3.72980 | 11.28337 | 37960 ft | 496 kts | 271° |
| 2026-04-27 20:27 | 3.73037 | 11.24914 | 37498 ft | 499 kts | 271° |
| 2026-04-27 20:27 | 3.73094 | 11.21407 | 36694 ft | 503 kts | 271° |
| 2026-04-27 20:28 | 3.73151 | 11.17895 | 36013 ft | 505 kts | 271° |
| 2026-04-27 20:28 | 3.73207 | 11.14373 | 35401 ft | 505 kts | 271° |
| 2026-04-27 20:28 | 3.73264 | 11.10858 | 34801 ft | 505 kts | 271° |
| 2026-04-27 20:28 | 3.73301 | 11.08530 | 34407 ft | 504 kts | 271° |
| 2026-04-27 20:29 | 3.73376 | 11.03825 | 33570 ft | 505 kts | 271° |
| 2026-04-27 20:29 | 3.73433 | 11.00307 | 32894 ft | 504 kts | 271° |
| 2026-04-27 20:29 | 3.73489 | 10.96799 | 32236 ft | 504 kts | 271° |
| 2026-04-27 20:29 | 3.73545 | 10.93283 | 31581 ft | 504 kts | 271° |
| 2026-04-27 20:30 | 3.73602 | 10.89763 | 30922 ft | 505 kts | 271° |
| 2026-04-27 20:30 | 3.73658 | 10.86245 | 30235 ft | 505 kts | 271° |
| 2026-04-27 20:30 | 3.73713 | 10.82717 | 29484 ft | 507 kts | 271° |
| 2026-04-27 20:30 | 3.73769 | 10.79186 | 28740 ft | 506 kts | 271° |
| 2026-04-27 20:31 | 3.73823 | 10.75658 | 28025 ft | 506 kts | 271° |
| 2026-04-27 20:31 | 3.73877 | 10.72188 | 27443 ft | 502 kts | 271° |
| 2026-04-27 20:31 | 3.73931 | 10.68710 | 27011 ft | 495 kts | 271° |
| 2026-04-27 20:31 | 3.73985 | 10.65269 | 26498 ft | 491 kts | 271° |
| 2026-04-27 20:32 | 3.74038 | 10.61863 | 26017 ft | 486 kts | 271° |
| 2026-04-27 20:32 | 3.74090 | 10.58492 | 25556 ft | 481 kts | 271° |
| 2026-04-27 20:32 | 3.74143 | 10.55154 | 25101 ft | 477 kts | 271° |
| 2026-04-27 20:32 | 3.74195 | 10.51844 | 24656 ft | 472 kts | 271° |
| 2026-04-27 20:33 | 3.74245 | 10.48559 | 24217 ft | 468 kts | 271° |
| 2026-04-27 20:33 | 3.74295 | 10.45304 | 23780 ft | 465 kts | 271° |
| 2026-04-27 20:33 | 3.74345 | 10.42078 | 23298 ft | 461 kts | 271° |
| 2026-04-27 20:33 | 3.74394 | 10.38869 | 22802 ft | 457 kts | 271° |
| 2026-04-27 20:34 | 3.74442 | 10.35695 | 22352 ft | 453 kts | 271° |
| 2026-04-27 20:34 | 3.74490 | 10.32555 | 21903 ft | 449 kts | 271° |
| 2026-04-27 20:34 | 3.74538 | 10.29439 | 21464 ft | 444 kts | 271° |
| 2026-04-27 20:34 | 3.74585 | 10.26356 | 21023 ft | 440 kts | 271° |
| 2026-04-27 20:35 | 3.74632 | 10.23297 | 20590 ft | 437 kts | 271° |
| 2026-04-27 20:35 | 3.74678 | 10.20259 | 20157 ft | 433 kts | 271° |
| 2026-04-27 20:35 | 3.74724 | 10.17249 | 19741 ft | 430 kts | 271° |
| 2026-04-27 20:35 | 3.74769 | 10.14262 | 19314 ft | 427 kts | 271° |
| 2026-04-27 20:36 | 3.74813 | 10.11291 | 18870 ft | 425 kts | 271° |
| 2026-04-27 20:36 | 3.74858 | 10.08329 | 18449 ft | 423 kts | 271° |
| 2026-04-27 20:36 | 3.74902 | 10.05387 | 17990 ft | 421 kts | 271° |
| 2026-04-27 20:36 | 3.74945 | 10.02497 | 17524 ft | 419 kts | 271° |
| 2026-04-27 20:37 | 3.74989 | 9.99592 | 17084 ft | 416 kts | 271° |
| 2026-04-27 20:37 | 3.75032 | 9.96701 | 16643 ft | 413 kts | 271° |
| 2026-04-27 20:37 | 3.75074 | 9.93832 | 16203 ft | 410 kts | 271° |
| 2026-04-27 20:37 | 3.75117 | 9.90986 | 15778 ft | 407 kts | 271° |
| 2026-04-27 20:38 | 3.75158 | 9.88158 | 15357 ft | 404 kts | 271° |
| 2026-04-27 20:38 | 3.75200 | 9.85347 | 14935 ft | 402 kts | 271° |
| 2026-04-27 20:38 | 3.75242 | 9.82552 | 14511 ft | 400 kts | 271° |
| 2026-04-27 20:38 | 3.75284 | 9.79761 | 14091 ft | 399 kts | 271° |
| 2026-04-27 20:39 | 3.75325 | 9.76987 | 13675 ft | 397 kts | 271° |
| 2026-04-27 20:39 | 3.75365 | 9.74224 | 13190 ft | 395 kts | 271° |
| 2026-04-27 20:39 | 3.75405 | 9.71476 | 12752 ft | 393 kts | 271° |
| 2026-04-27 20:39 | 3.75444 | 9.68750 | 12326 ft | 390 kts | 271° |
| 2026-04-27 20:40 | 3.75483 | 9.66036 | 11905 ft | 388 kts | 271° |
| 2026-04-27 20:40 | 3.75523 | 9.63337 | 11474 ft | 386 kts | 271° |
| 2026-04-27 20:40 | 3.75562 | 9.60660 | 11066 ft | 384 kts | 271° |
| 2026-04-27 20:40 | 3.75600 | 9.58026 | 10671 ft | 381 kts | 271° |
| 2026-04-27 20:41 | 3.75638 | 9.55414 | 10530 ft | 368 kts | 271° |
| 2026-04-27 20:41 | 3.75674 | 9.52892 | 10414 ft | 355 kts | 272° |
| 2026-04-27 20:41 | 3.75710 | 9.50457 | 10302 ft | 343 kts | 272° |
| 2026-04-27 20:41 | 3.75745 | 9.48107 | 10190 ft | 331 kts | 272° |
| 2026-04-27 20:42 | 3.75778 | 9.45838 | 10096 ft | 320 kts | 272° |
| 2026-04-27 20:42 | 3.75811 | 9.43644 | 10004 ft | 310 kts | 272° |
| 2026-04-27 20:42 | 3.75843 | 9.41507 | 9906 ft | 304 kts | 272° |
| 2026-04-27 20:42 | 3.75875 | 9.39379 | 9605 ft | 306 kts | 272° |
| 2026-04-27 20:43 | 3.75907 | 9.37247 | 9275 ft | 306 kts | 272° |
| 2026-04-27 20:43 | 3.75939 | 9.35106 | 8946 ft | 305 kts | 272° |
| 2026-04-27 20:43 | 3.75969 | 9.32978 | 8642 ft | 304 kts | 272° |
| 2026-04-27 20:43 | 3.75999 | 9.30857 | 8330 ft | 303 kts | 272° |
| 2026-04-27 20:44 | 3.76029 | 9.28747 | 8024 ft | 302 kts | 272° |
| 2026-04-27 20:44 | 3.76059 | 9.26643 | 7721 ft | 301 kts | 272° |
| 2026-04-27 20:44 | 3.76089 | 9.24549 | 7418 ft | 299 kts | 272° |
| 2026-04-27 20:44 | 3.76119 | 9.22472 | 7145 ft | 297 kts | 272° |
| 2026-04-27 20:45 | 3.76149 | 9.20402 | 6846 ft | 296 kts | 271° |
| 2026-04-27 20:45 | 3.76178 | 9.18344 | 6557 ft | 295 kts | 271° |
| 2026-04-27 20:45 | 3.76206 | 9.16297 | 6267 ft | 293 kts | 271° |
| 2026-04-27 20:45 | 3.76234 | 9.14289 | 6172 ft | 281 kts | 271° |
| 2026-04-27 20:46 | 3.76463 | 9.12391 | 6086 ft | 268 kts | 289° |
| 2026-04-27 20:46 | 3.77203 | 9.10706 | 5848 ft | 263 kts | 301° |
| 2026-04-27 20:46 | 3.78109 | 9.09126 | 5599 ft | 260 kts | 303° |
| 2026-04-27 20:46 | 3.79021 | 9.07588 | 5346 ft | 260 kts | 303° |
| 2026-04-27 20:47 | 3.79942 | 9.06026 | 5071 ft | 260 kts | 302° |
| 2026-04-27 20:47 | 3.80853 | 9.04461 | 4800 ft | 260 kts | 302° |
| 2026-04-27 20:47 | 3.81756 | 9.02896 | 4525 ft | 259 kts | 301° |
| 2026-04-27 20:47 | 3.82654 | 9.01335 | 4271 ft | 258 kts | 301° |
| 2026-04-27 20:48 | 3.83542 | 8.99784 | 4062 ft | 256 kts | 301° |
| 2026-04-27 20:48 | 3.84141 | 8.98737 | 4027 ft | 257 kts | 301° |
| 2026-04-27 20:48 | 3.85320 | 8.96669 | 4028 ft | 258 kts | 301° |
| 2026-04-27 20:48 | 3.86204 | 8.95118 | 3957 ft | 254 kts | 301° |
| 2026-04-27 20:49 | 3.87087 | 8.93579 | 3661 ft | 255 kts | 300° |
| 2026-04-27 20:49 | 3.87964 | 8.92044 | 3393 ft | 253 kts | 300° |
| 2026-04-27 20:49 | 3.88829 | 8.90532 | 3185 ft | 248 kts | 300° |
| 2026-04-27 20:49 | 3.89679 | 8.89043 | 2980 ft | 243 kts | 300° |
| 2026-04-27 20:50 | 3.90513 | 8.87582 | 2756 ft | 240 kts | 300° |
| 2026-04-27 20:50 | 3.91307 | 8.86129 | 2538 ft | 236 kts | 291° |
| 2026-04-27 20:50 | 3.91418 | 8.84529 | 2278 ft | 232 kts | 251° |
| 2026-04-27 20:50 | 3.90492 | 8.83295 | 2180 ft | 224 kts | 216° |
| 2026-04-27 20:51 | 3.89173 | 8.82541 | 2151 ft | 214 kts | 209° |
| 2026-04-27 20:51 | 3.87885 | 8.81798 | 2133 ft | 213 kts | 216° |
| 2026-04-27 20:51 | 3.86705 | 8.80916 | 2121 ft | 211 kts | 222° |
| 2026-04-27 20:51 | 3.85612 | 8.79968 | 2174 ft | 200 kts | 223° |
| 2026-04-27 20:52 | 3.84612 | 8.79059 | 2079 ft | 189 kts | 224° |
| 2026-04-27 20:52 | 3.83653 | 8.78182 | 1867 ft | 185 kts | 224° |
| 2026-04-27 20:52 | 3.82718 | 8.77337 | 1626 ft | 176 kts | 224° |
| 2026-04-27 20:52 | 3.81829 | 8.76537 | 1382 ft | 165 kts | 224° |
| 2026-04-27 20:53 | 3.81006 | 8.75797 | 1174 ft | 154 kts | 224° |
| 2026-04-27 20:53 | 3.80212 | 8.75081 | 994 ft | 152 kts | 224° |
| 2026-04-27 20:53 | 3.79426 | 8.74370 | 820 ft | 152 kts | 222° |
| 2026-04-27 20:53 | 3.78640 | 8.73664 | 646 ft | 152 kts | 223° |
| 2026-04-27 20:54 | 3.77341 | 8.72485 | 326 ft | 151 kts | 223° |
| 2026-04-27 20:54 | 3.76561 | 8.71794 | 112 ft | 148 kts | 223° |
| 2026-04-27 20:54 | 3.75822 | 8.71130 | 70 ft | 125 kts | 221° |
| 2026-04-27 20:55 | 3.75325 | 8.70687 | 86 ft | 60 kts | 221° |
| 2026-04-27 20:55 | 3.75086 | 8.70474 | 85 ft | 31 kts | 221° |
| 2026-04-27 20:55 | 3.74976 | 8.70401 | 84 ft | 12 kts | 169° |
| 2026-04-27 20:55 | 3.74896 | 8.70467 | 84 ft | 11 kts | 131° |
| 2026-04-27 20:56 | 3.74876 | 8.70516 | 70 ft | 9 kts | 64° |
| 2026-04-27 20:56 | 3.74932 | 8.70575 | 78 ft | 13 kts | 42° |
| 2026-04-27 20:56 | 3.75010 | 8.70646 | 73 ft | 17 kts | 42° |
| 2026-04-27 20:56 | 3.75107 | 8.70733 | 69 ft | 20 kts | 42° |
| 2026-04-27 20:57 | 3.75221 | 8.70833 | 69 ft | 22 kts | 41° |
| 2026-04-27 20:57 | 3.75331 | 8.70931 | 73 ft | 22 kts | 41° |
| 2026-04-27 20:57 | 3.75454 | 8.71042 | 68 ft | 25 kts | 43° |
| 2026-04-27 20:57 | 3.75574 | 8.71154 | 76 ft | 13 kts | 42° |
| 2026-04-27 20:58 | 3.75652 | 8.71220 | 72 ft | 17 kts | 40° |
| 2026-04-27 20:58 | 3.75747 | 8.71304 | 72 ft | 20 kts | 41° |
| 2026-04-27 20:58 | 3.75769 | 8.71396 | 68 ft | 15 kts | 103° |
| 2026-04-27 20:58 | 3.75716 | 8.71448 | 74 ft | 5 kts | 203° |
| 2026-04-27 20:59 | 3.75709 | 8.71443 | 78 ft | 0 kts | 217° |